sensor_id;sensor_type;location;lat;lon;timestamp;temperature;humidity
70550;DHT22;58101;48.658;2.328;2023-01-01T00:01:11;13.90;73.70
70550;DHT22;58101;48.658;2.328;2023-01-01T00:03:37;13.90;72.90
70550;DHT22;58101;48.658;2.328;2023-01-01T00:08:33;14.00;73.00
70550;DHT22;58101;48.658;2.328;2023-01-01T00:11:02;14.00;73.30
70550;DHT22;58101;48.658;2.328;2023-01-01T00:13:28;14.10;73.50
70550;DHT22;58101;48.658;2.328;2023-01-01T00:15:53;14.10;73.80
70550;DHT22;58101;48.658;2.328;2023-01-01T00:18:19;14.00;73.60
70550;DHT22;58101;48.658;2.328;2023-01-01T00:20:44;14.20;74.90
70550;DHT22;58101;48.658;2.328;2023-01-01T00:23:10;14.00;75.20
70550;DHT22;58101;48.658;2.328;2023-01-01T00:25:38;14.00;75.60
70550;DHT22;58101;48.658;2.328;2023-01-01T00:28:04;14.00;74.80
70550;DHT22;58101;48.658;2.328;2023-01-01T00:30:30;14.00;75.40
70550;DHT22;58101;48.658;2.328;2023-01-01T00:32:56;14.00;75.50
70550;DHT22;58101;48.658;2.328;2023-01-01T00:35:23;13.90;76.00
70550;DHT22;58101;48.658;2.328;2023-01-01T00:37:49;14.00;76.70
70550;DHT22;58101;48.658;2.328;2023-01-01T00:40:14;14.00;76.00
70550;DHT22;58101;48.658;2.328;2023-01-01T00:42:40;14.00;76.80
70550;DHT22;58101;48.658;2.328;2023-01-01T00:45:06;14.10;76.30
70550;DHT22;58101;48.658;2.328;2023-01-01T00:47:32;14.10;77.00
70550;DHT22;58101;48.658;2.328;2023-01-01T00:49:58;14.00;77.60
70550;DHT22;58101;48.658;2.328;2023-01-01T00:52:23;14.00;78.00
70550;DHT22;58101;48.658;2.328;2023-01-01T00:54:49;14.00;78.00
70550;DHT22;58101;48.658;2.328;2023-01-01T00:57:14;14.00;78.50
70550;DHT22;58101;48.658;2.328;2023-01-01T00:59:41;14.00;78.30
70550;DHT22;58101;48.658;2.328;2023-01-01T01:02:06;14.00;79.60
70550;DHT22;58101;48.658;2.328;2023-01-01T01:04:32;14.00;79.50
70550;DHT22;58101;48.658;2.328;2023-01-01T01:06:57;14.00;79.70
70550;DHT22;58101;48.658;2.328;2023-01-01T01:09:23;14.00;81.20
70550;DHT22;58101;48.658;2.328;2023-01-01T01:11:49;13.90;80.80
70550;DHT22;58101;48.658;2.328;2023-01-01T01:14:14;14.00;81.70
70550;DHT22;58101;48.658;2.328;2023-01-01T01:16:40;14.00;81.20
70550;DHT22;58101;48.658;2.328;2023-01-01T01:19:06;14.00;80.80
70550;DHT22;58101;48.658;2.328;2023-01-01T01:21:33;14.00;82.50
70550;DHT22;58101;48.658;2.328;2023-01-01T01:24:02;14.00;82.50
70550;DHT22;58101;48.658;2.328;2023-01-01T01:26:30;14.00;83.40
70550;DHT22;58101;48.658;2.328;2023-01-01T01:28:57;14.00;82.90
70550;DHT22;58101;48.658;2.328;2023-01-01T01:31:25;14.00;83.70
70550;DHT22;58101;48.658;2.328;2023-01-01T01:33:51;14.00;85.20
70550;DHT22;58101;48.658;2.328;2023-01-01T01:36:17;14.00;85.10
70550;DHT22;58101;48.658;2.328;2023-01-01T01:38:43;14.00;84.70
70550;DHT22;58101;48.658;2.328;2023-01-01T01:41:11;14.00;84.40
70550;DHT22;58101;48.658;2.328;2023-01-01T01:46:11;13.90;84.40
70550;DHT22;58101;48.658;2.328;2023-01-01T01:48:41;14.00;85.20
70550;DHT22;58101;48.658;2.328;2023-01-01T01:51:09;14.00;85.90
70550;DHT22;58101;48.658;2.328;2023-01-01T01:53:43;13.90;86.50
70550;DHT22;58101;48.658;2.328;2023-01-01T01:56:17;13.90;86.00
70550;DHT22;58101;48.658;2.328;2023-01-01T01:58:44;13.90;87.40
70550;DHT22;58101;48.658;2.328;2023-01-01T02:01:10;13.90;86.50
70550;DHT22;58101;48.658;2.328;2023-01-01T02:03:40;14.00;87.20
70550;DHT22;58101;48.658;2.328;2023-01-01T02:06:09;13.90;88.50
70550;DHT22;58101;48.658;2.328;2023-01-01T02:08:35;13.90;87.50
70550;DHT22;58101;48.658;2.328;2023-01-01T02:11:02;14.00;89.20
70550;DHT22;58101;48.658;2.328;2023-01-01T02:13:28;13.90;89.80
70550;DHT22;58101;48.658;2.328;2023-01-01T02:16:00;13.90;89.80
70550;DHT22;58101;48.658;2.328;2023-01-01T02:18:38;13.90;90.10
70550;DHT22;58101;48.658;2.328;2023-01-01T02:21:12;13.80;91.70
70550;DHT22;58101;48.658;2.328;2023-01-01T02:26:49;13.80;91.20
70550;DHT22;58101;48.658;2.328;2023-01-01T02:29:33;13.80;91.60
70550;DHT22;58101;48.658;2.328;2023-01-01T02:34:39;13.80;92.00
70550;DHT22;58101;48.658;2.328;2023-01-01T02:37:07;13.90;91.80
70550;DHT22;58101;48.658;2.328;2023-01-01T02:39:36;13.80;92.30
70550;DHT22;58101;48.658;2.328;2023-01-01T02:42:05;13.80;91.90
70550;DHT22;58101;48.658;2.328;2023-01-01T02:44:34;13.80;92.20
70550;DHT22;58101;48.658;2.328;2023-01-01T02:47:09;13.70;93.10
70550;DHT22;58101;48.658;2.328;2023-01-01T02:49:45;13.70;93.00
70550;DHT22;58101;48.658;2.328;2023-01-01T02:55:05;13.80;93.60
70550;DHT22;58101;48.658;2.328;2023-01-01T02:57:37;13.80;93.90
70550;DHT22;58101;48.658;2.328;2023-01-01T03:00:14;13.80;93.20
70550;DHT22;58101;48.658;2.328;2023-01-01T03:11:12;13.80;94.50
70550;DHT22;58101;48.658;2.328;2023-01-01T03:17:10;13.70;94.90
70550;DHT22;58101;48.658;2.328;2023-01-01T03:19:40;13.70;95.40
70550;DHT22;58101;48.658;2.328;2023-01-01T03:22:10;13.70;96.60
70550;DHT22;58101;48.658;2.328;2023-01-01T03:24:47;13.70;96.40
70550;DHT22;58101;48.658;2.328;2023-01-01T03:27:27;13.70;96.60
70550;DHT22;58101;48.658;2.328;2023-01-01T03:29:56;13.70;97.90
70550;DHT22;58101;48.658;2.328;2023-01-01T03:32:37;13.70;97.40
70550;DHT22;58101;48.658;2.328;2023-01-01T03:35:23;13.70;97.40
70550;DHT22;58101;48.658;2.328;2023-01-01T03:37:53;13.70;97.60
70550;DHT22;58101;48.658;2.328;2023-01-01T03:40:21;13.70;98.00
70550;DHT22;58101;48.658;2.328;2023-01-01T03:42:51;13.70;98.20
70550;DHT22;58101;48.658;2.328;2023-01-01T03:45:25;13.70;98.90
70550;DHT22;58101;48.658;2.328;2023-01-01T03:47:53;13.70;99.70
70550;DHT22;58101;48.658;2.328;2023-01-01T03:50:21;13.70;99.90
70550;DHT22;58101;48.658;2.328;2023-01-01T03:53:02;13.60;99.90
70550;DHT22;58101;48.658;2.328;2023-01-01T03:55:38;13.60;99.90
70550;DHT22;58101;48.658;2.328;2023-01-01T04:00:54;13.60;99.90
70550;DHT22;58101;48.658;2.328;2023-01-01T04:03:23;13.60;99.90
70550;DHT22;58101;48.658;2.328;2023-01-01T04:05:49;13.60;99.90
70550;DHT22;58101;48.658;2.328;2023-01-01T04:08:16;13.50;99.90
70550;DHT22;58101;48.658;2.328;2023-01-01T04:10:45;13.50;99.90
70550;DHT22;58101;48.658;2.328;2023-01-01T04:13:11;13.50;99.90
70550;DHT22;58101;48.658;2.328;2023-01-01T04:15:37;13.50;99.90
70550;DHT22;58101;48.658;2.328;2023-01-01T04:18:03;13.50;99.90
70550;DHT22;58101;48.658;2.328;2023-01-01T04:20:29;13.50;99.90
70550;DHT22;58101;48.658;2.328;2023-01-01T04:22:56;13.50;99.90
70550;DHT22;58101;48.658;2.328;2023-01-01T04:25:22;13.50;99.90
70550;DHT22;58101;48.658;2.328;2023-01-01T04:27:47;13.50;99.90
70550;DHT22;58101;48.658;2.328;2023-01-01T04:30:13;13.50;99.90
70550;DHT22;58101;48.658;2.328;2023-01-01T04:32:40;13.50;99.90
70550;DHT22;58101;48.658;2.328;2023-01-01T04:35:07;13.60;99.90
70550;DHT22;58101;48.658;2.328;2023-01-01T04:37:36;13.50;99.90
70550;DHT22;58101;48.658;2.328;2023-01-01T04:40:03;13.50;99.90
70550;DHT22;58101;48.658;2.328;2023-01-01T04:42:29;13.50;99.90
70550;DHT22;58101;48.658;2.328;2023-01-01T04:44:54;13.40;99.90
70550;DHT22;58101;48.658;2.328;2023-01-01T04:47:20;13.50;99.90
70550;DHT22;58101;48.658;2.328;2023-01-01T04:49:46;13.50;99.90
70550;DHT22;58101;48.658;2.328;2023-01-01T04:52:12;13.40;99.90
70550;DHT22;58101;48.658;2.328;2023-01-01T04:54:37;13.40;99.90
70550;DHT22;58101;48.658;2.328;2023-01-01T04:57:03;13.40;99.90
70550;DHT22;58101;48.658;2.328;2023-01-01T04:59:29;13.40;99.90
70550;DHT22;58101;48.658;2.328;2023-01-01T05:01:55;13.40;99.90
70550;DHT22;58101;48.658;2.328;2023-01-01T05:04:21;13.40;99.90
70550;DHT22;58101;48.658;2.328;2023-01-01T05:06:46;13.30;99.90
70550;DHT22;58101;48.658;2.328;2023-01-01T05:09:12;13.40;99.90
70550;DHT22;58101;48.658;2.328;2023-01-01T05:11:38;13.30;99.90
70550;DHT22;58101;48.658;2.328;2023-01-01T05:14:04;13.40;99.90
70550;DHT22;58101;48.658;2.328;2023-01-01T05:16:35;13.30;99.90
70550;DHT22;58101;48.658;2.328;2023-01-01T05:19:01;13.30;99.90
70550;DHT22;58101;48.658;2.328;2023-01-01T05:21:32;13.30;99.90
70550;DHT22;58101;48.658;2.328;2023-01-01T05:24:00;13.40;99.90
70550;DHT22;58101;48.658;2.328;2023-01-01T05:26:32;13.30;99.90
70550;DHT22;58101;48.658;2.328;2023-01-01T05:28:58;13.30;99.90
70550;DHT22;58101;48.658;2.328;2023-01-01T05:31:30;13.50;99.90
70550;DHT22;58101;48.658;2.328;2023-01-01T05:33:56;13.30;99.90
70550;DHT22;58101;48.658;2.328;2023-01-01T05:36:26;13.30;99.90
70550;DHT22;58101;48.658;2.328;2023-01-01T05:38:52;13.30;99.90
70550;DHT22;58101;48.658;2.328;2023-01-01T05:41:20;13.30;99.90
70550;DHT22;58101;48.658;2.328;2023-01-01T05:43:46;13.30;99.90
70550;DHT22;58101;48.658;2.328;2023-01-01T05:46:17;13.30;99.90
70550;DHT22;58101;48.658;2.328;2023-01-01T05:48:43;13.30;99.90
70550;DHT22;58101;48.658;2.328;2023-01-01T05:51:15;13.30;99.90
70550;DHT22;58101;48.658;2.328;2023-01-01T05:53:41;13.30;99.90
70550;DHT22;58101;48.658;2.328;2023-01-01T05:56:09;13.30;99.90
70550;DHT22;58101;48.658;2.328;2023-01-01T05:58:35;13.30;99.90
70550;DHT22;58101;48.658;2.328;2023-01-01T06:01:22;13.30;99.90
70550;DHT22;58101;48.658;2.328;2023-01-01T06:03:48;13.20;99.90
70550;DHT22;58101;48.658;2.328;2023-01-01T06:06:16;13.30;99.90
70550;DHT22;58101;48.658;2.328;2023-01-01T06:08:47;13.30;99.90
70550;DHT22;58101;48.658;2.328;2023-01-01T06:11:13;13.30;99.90
70550;DHT22;58101;48.658;2.328;2023-01-01T06:13:39;13.30;99.90
70550;DHT22;58101;48.658;2.328;2023-01-01T06:16:05;13.20;99.90
70550;DHT22;58101;48.658;2.328;2023-01-01T06:18:32;13.40;99.90
70550;DHT22;58101;48.658;2.328;2023-01-01T06:21:15;13.20;99.90
70550;DHT22;58101;48.658;2.328;2023-01-01T06:23:42;13.30;99.90
70550;DHT22;58101;48.658;2.328;2023-01-01T06:26:10;13.30;99.90
70550;DHT22;58101;48.658;2.328;2023-01-01T06:28:36;13.30;99.90
70550;DHT22;58101;48.658;2.328;2023-01-01T06:31:03;13.20;99.90
70550;DHT22;58101;48.658;2.328;2023-01-01T06:33:29;13.30;99.90
70550;DHT22;58101;48.658;2.328;2023-01-01T06:35:55;13.20;99.90
70550;DHT22;58101;48.658;2.328;2023-01-01T06:38:21;13.30;99.90
70550;DHT22;58101;48.658;2.328;2023-01-01T06:41:04;13.30;99.90
70550;DHT22;58101;48.658;2.328;2023-01-01T06:43:32;13.30;99.90
70550;DHT22;58101;48.658;2.328;2023-01-01T06:48:33;13.30;99.90
70550;DHT22;58101;48.658;2.328;2023-01-01T06:51:13;13.40;99.90
70550;DHT22;58101;48.658;2.328;2023-01-01T06:53:40;13.30;99.90
70550;DHT22;58101;48.658;2.328;2023-01-01T06:56:06;13.30;99.90
70550;DHT22;58101;48.658;2.328;2023-01-01T06:58:32;13.40;99.90
70550;DHT22;58101;48.658;2.328;2023-01-01T07:01:06;13.40;99.90
70550;DHT22;58101;48.658;2.328;2023-01-01T07:03:32;13.30;99.90
70550;DHT22;58101;48.658;2.328;2023-01-01T07:05:58;13.30;99.90
70550;DHT22;58101;48.658;2.328;2023-01-01T07:08:24;13.30;99.90
70550;DHT22;58101;48.658;2.328;2023-01-01T07:10:49;13.20;99.90
70550;DHT22;58101;48.658;2.328;2023-01-01T07:13:15;13.20;99.90
70550;DHT22;58101;48.658;2.328;2023-01-01T07:15:40;13.20;99.90
70550;DHT22;58101;48.658;2.328;2023-01-01T07:18:08;13.00;99.90
70550;DHT22;58101;48.658;2.328;2023-01-01T07:20:34;13.10;99.90
70550;DHT22;58101;48.658;2.328;2023-01-01T07:23:00;13.10;99.90
70550;DHT22;58101;48.658;2.328;2023-01-01T07:25:28;13.10;99.90
70550;DHT22;58101;48.658;2.328;2023-01-01T07:27:54;13.10;99.90
70550;DHT22;58101;48.658;2.328;2023-01-01T07:30:20;13.10;99.90
70550;DHT22;58101;48.658;2.328;2023-01-01T07:32:45;13.10;99.90
70550;DHT22;58101;48.658;2.328;2023-01-01T07:35:11;13.00;99.90
70550;DHT22;58101;48.658;2.328;2023-01-01T07:37:37;13.10;99.90
70550;DHT22;58101;48.658;2.328;2023-01-01T07:40:02;13.10;99.90
70550;DHT22;58101;48.658;2.328;2023-01-01T07:42:28;13.10;99.90
70550;DHT22;58101;48.658;2.328;2023-01-01T07:44:54;13.10;99.90
70550;DHT22;58101;48.658;2.328;2023-01-01T07:47:24;13.10;99.90
70550;DHT22;58101;48.658;2.328;2023-01-01T07:49:50;13.10;99.90
70550;DHT22;58101;48.658;2.328;2023-01-01T07:52:16;13.10;99.90
70550;DHT22;58101;48.658;2.328;2023-01-01T07:54:42;13.00;99.90
70550;DHT22;58101;48.658;2.328;2023-01-01T07:57:08;13.00;99.90
70550;DHT22;58101;48.658;2.328;2023-01-01T07:59:39;13.00;99.90
70550;DHT22;58101;48.658;2.328;2023-01-01T08:02:05;13.10;99.90
70550;DHT22;58101;48.658;2.328;2023-01-01T08:04:31;13.10;99.90
70550;DHT22;58101;48.658;2.328;2023-01-01T08:06:56;13.10;99.90
70550;DHT22;58101;48.658;2.328;2023-01-01T08:09:22;13.10;99.90
70550;DHT22;58101;48.658;2.328;2023-01-01T08:11:48;13.10;99.90
70550;DHT22;58101;48.658;2.328;2023-01-01T08:14:15;13.10;99.90
70550;DHT22;58101;48.658;2.328;2023-01-01T08:16:41;13.10;99.90
70550;DHT22;58101;48.658;2.328;2023-01-01T08:19:06;13.20;99.90
70550;DHT22;58101;48.658;2.328;2023-01-01T08:21:32;13.10;99.90
70550;DHT22;58101;48.658;2.328;2023-01-01T08:23:58;13.10;99.90
70550;DHT22;58101;48.658;2.328;2023-01-01T08:26:32;13.10;99.90
70550;DHT22;58101;48.658;2.328;2023-01-01T08:29:01;13.10;99.90
70550;DHT22;58101;48.658;2.328;2023-01-01T08:31:27;13.00;99.90
70550;DHT22;58101;48.658;2.328;2023-01-01T08:33:53;13.20;99.90
70550;DHT22;58101;48.658;2.328;2023-01-01T08:36:18;13.10;99.90
70550;DHT22;58101;48.658;2.328;2023-01-01T08:38:45;13.20;99.90
70550;DHT22;58101;48.658;2.328;2023-01-01T08:41:11;13.10;99.90
70550;DHT22;58101;48.658;2.328;2023-01-01T08:43:37;13.10;99.90
70550;DHT22;58101;48.658;2.328;2023-01-01T08:46:02;13.10;99.90
70550;DHT22;58101;48.658;2.328;2023-01-01T08:48:28;13.10;99.90
70550;DHT22;58101;48.658;2.328;2023-01-01T08:50:54;13.10;99.90
70550;DHT22;58101;48.658;2.328;2023-01-01T08:53:20;13.10;99.90
70550;DHT22;58101;48.658;2.328;2023-01-01T08:56:00;13.00;99.90
70550;DHT22;58101;48.658;2.328;2023-01-01T08:58:29;13.10;99.90
70550;DHT22;58101;48.658;2.328;2023-01-01T09:00:55;13.10;99.90
70550;DHT22;58101;48.658;2.328;2023-01-01T09:03:20;13.10;99.90
70550;DHT22;58101;48.658;2.328;2023-01-01T09:05:46;13.10;99.90
70550;DHT22;58101;48.658;2.328;2023-01-01T09:08:12;13.10;99.90
70550;DHT22;58101;48.658;2.328;2023-01-01T09:10:38;13.10;99.90
70550;DHT22;58101;48.658;2.328;2023-01-01T09:13:04;13.10;99.90
70550;DHT22;58101;48.658;2.328;2023-01-01T09:15:30;13.10;99.90
70550;DHT22;58101;48.658;2.328;2023-01-01T09:17:55;13.10;99.90
70550;DHT22;58101;48.658;2.328;2023-01-01T09:20:21;13.10;99.90
70550;DHT22;58101;48.658;2.328;2023-01-01T09:22:47;13.10;99.90
70550;DHT22;58101;48.658;2.328;2023-01-01T09:25:16;13.10;99.90
70550;DHT22;58101;48.658;2.328;2023-01-01T09:27:41;13.10;99.90
70550;DHT22;58101;48.658;2.328;2023-01-01T09:30:08;13.10;99.90
70550;DHT22;58101;48.658;2.328;2023-01-01T09:32:33;13.10;99.90
70550;DHT22;58101;48.658;2.328;2023-01-01T09:34:59;13.10;99.90
70550;DHT22;58101;48.658;2.328;2023-01-01T09:37:26;13.10;99.90
70550;DHT22;58101;48.658;2.328;2023-01-01T09:39:52;13.10;99.90
70550;DHT22;58101;48.658;2.328;2023-01-01T09:42:42;13.10;99.90
70550;DHT22;58101;48.658;2.328;2023-01-01T09:45:24;13.10;99.90
70550;DHT22;58101;48.658;2.328;2023-01-01T09:47:58;13.10;99.90
70550;DHT22;58101;48.658;2.328;2023-01-01T09:50:38;13.10;99.90
70550;DHT22;58101;48.658;2.328;2023-01-01T09:53:24;13.10;99.90
70550;DHT22;58101;48.658;2.328;2023-01-01T09:56:00;13.10;99.90
70550;DHT22;58101;48.658;2.328;2023-01-01T09:58:40;13.10;99.90
70550;DHT22;58101;48.658;2.328;2023-01-01T10:06:19;13.10;99.90
70550;DHT22;58101;48.658;2.328;2023-01-01T10:14:24;13.10;99.90
70550;DHT22;58101;48.658;2.328;2023-01-01T10:16:53;13.20;99.90
70550;DHT22;58101;48.658;2.328;2023-01-01T10:19:29;13.10;99.90
70550;DHT22;58101;48.658;2.328;2023-01-01T10:22:02;13.10;99.90
70550;DHT22;58101;48.658;2.328;2023-01-01T10:27:23;13.10;99.90
70550;DHT22;58101;48.658;2.328;2023-01-01T10:30:15;13.00;99.90
70550;DHT22;58101;48.658;2.328;2023-01-01T10:32:41;13.00;99.90
70550;DHT22;58101;48.658;2.328;2023-01-01T10:35:22;13.00;99.90
70550;DHT22;58101;48.658;2.328;2023-01-01T10:37:56;12.90;99.90
70550;DHT22;58101;48.658;2.328;2023-01-01T10:40:27;12.90;99.90
70550;DHT22;58101;48.658;2.328;2023-01-01T10:42:55;12.90;99.90
70550;DHT22;58101;48.658;2.328;2023-01-01T10:48:23;12.90;99.90
70550;DHT22;58101;48.658;2.328;2023-01-01T10:50:58;12.90;99.90
70550;DHT22;58101;48.658;2.328;2023-01-01T10:53:38;12.90;99.90
70550;DHT22;58101;48.658;2.328;2023-01-01T10:56:18;12.90;99.90
70550;DHT22;58101;48.658;2.328;2023-01-01T11:06:47;12.90;99.90
70550;DHT22;58101;48.658;2.328;2023-01-01T11:09:22;12.90;99.90
70550;DHT22;58101;48.658;2.328;2023-01-01T11:11:55;12.90;99.90
70550;DHT22;58101;48.658;2.328;2023-01-01T11:14:43;12.90;99.90
70550;DHT22;58101;48.658;2.328;2023-01-01T11:17:24;12.80;99.90
70550;DHT22;58101;48.658;2.328;2023-01-01T11:19:54;12.80;99.90
70550;DHT22;58101;48.658;2.328;2023-01-01T11:22:40;12.70;99.90
70550;DHT22;58101;48.658;2.328;2023-01-01T11:25:28;12.60;99.90
70550;DHT22;58101;48.658;2.328;2023-01-01T11:30:40;12.70;99.90
70550;DHT22;58101;48.658;2.328;2023-01-01T11:33:06;12.60;99.90
70550;DHT22;58101;48.658;2.328;2023-01-01T11:35:48;12.70;99.90
70550;DHT22;58101;48.658;2.328;2023-01-01T11:38:18;12.60;99.90
70550;DHT22;58101;48.658;2.328;2023-01-01T11:40:47;12.60;99.90
70550;DHT22;58101;48.658;2.328;2023-01-01T11:43:22;12.60;99.90
70550;DHT22;58101;48.658;2.328;2023-01-01T11:45:48;12.50;99.90
70550;DHT22;58101;48.658;2.328;2023-01-01T11:48:27;12.60;99.90
70550;DHT22;58101;48.658;2.328;2023-01-01T11:51:00;12.60;99.90
70550;DHT22;58101;48.658;2.328;2023-01-01T11:53:29;12.60;99.90
70550;DHT22;58101;48.658;2.328;2023-01-01T11:56:15;12.60;99.90
70550;DHT22;58101;48.658;2.328;2023-01-01T11:58:49;12.50;99.90
70550;DHT22;58101;48.658;2.328;2023-01-01T12:04:07;12.50;99.90
70550;DHT22;58101;48.658;2.328;2023-01-01T12:09:27;12.50;99.90
70550;DHT22;58101;48.658;2.328;2023-01-01T12:14:34;12.50;99.90
70550;DHT22;58101;48.658;2.328;2023-01-01T12:22:18;12.50;99.90
70550;DHT22;58101;48.658;2.328;2023-01-01T12:24:45;12.60;99.90
70550;DHT22;58101;48.658;2.328;2023-01-01T12:27:17;12.50;99.90
70550;DHT22;58101;48.658;2.328;2023-01-01T12:30:23;12.40;99.90
70550;DHT22;58101;48.658;2.328;2023-01-01T12:35:27;12.50;99.90
70550;DHT22;58101;48.658;2.328;2023-01-01T12:38:36;12.50;99.90
70550;DHT22;58101;48.658;2.328;2023-01-01T12:44:04;12.60;99.90
70550;DHT22;58101;48.658;2.328;2023-01-01T12:49:39;12.50;99.90
70550;DHT22;58101;48.658;2.328;2023-01-01T12:58:20;12.40;99.90
70550;DHT22;58101;48.658;2.328;2023-01-01T13:01:06;12.40;99.90
70550;DHT22;58101;48.658;2.328;2023-01-01T13:03:36;12.30;99.90
70550;DHT22;58101;48.658;2.328;2023-01-01T13:06:10;12.20;99.90
70550;DHT22;58101;48.658;2.328;2023-01-01T13:08:38;12.40;99.90
70550;DHT22;58101;48.658;2.328;2023-01-01T13:11:06;12.30;99.90
70550;DHT22;58101;48.658;2.328;2023-01-01T13:13:32;12.20;99.90
70550;DHT22;58101;48.658;2.328;2023-01-01T13:15:58;12.30;99.90
70550;DHT22;58101;48.658;2.328;2023-01-01T13:18:30;12.20;99.90
70550;DHT22;58101;48.658;2.328;2023-01-01T13:21:02;12.20;99.90
70550;DHT22;58101;48.658;2.328;2023-01-01T13:42:44;12.10;99.90
70550;DHT22;58101;48.658;2.328;2023-01-01T13:45:36;12.10;99.90
70550;DHT22;58101;48.658;2.328;2023-01-01T13:51:25;12.10;99.90
70550;DHT22;58101;48.658;2.328;2023-01-01T13:56:56;12.10;99.90
70550;DHT22;58101;48.658;2.328;2023-01-01T14:02:43;12.00;99.90
70550;DHT22;58101;48.658;2.328;2023-01-01T14:05:45;12.10;99.90
70550;DHT22;58101;48.658;2.328;2023-01-01T14:08:33;12.00;99.90
70550;DHT22;58101;48.658;2.328;2023-01-01T14:11:01;12.00;99.90
70550;DHT22;58101;48.658;2.328;2023-01-01T14:13:38;12.00;99.90
70550;DHT22;58101;48.658;2.328;2023-01-01T14:16:06;12.00;99.90
70550;DHT22;58101;48.658;2.328;2023-01-01T14:21:13;12.00;99.90
70550;DHT22;58101;48.658;2.328;2023-01-01T14:23:42;12.00;99.90
70550;DHT22;58101;48.658;2.328;2023-01-01T14:26:14;12.00;99.90
70550;DHT22;58101;48.658;2.328;2023-01-01T14:28:41;12.00;99.90
70550;DHT22;58101;48.658;2.328;2023-01-01T14:31:19;12.00;99.90
70550;DHT22;58101;48.658;2.328;2023-01-01T14:33:45;12.00;99.90
70550;DHT22;58101;48.658;2.328;2023-01-01T14:36:25;11.90;99.90
70550;DHT22;58101;48.658;2.328;2023-01-01T14:38:54;11.90;99.90
70550;DHT22;58101;48.658;2.328;2023-01-01T14:41:38;11.90;99.90
70550;DHT22;58101;48.658;2.328;2023-01-01T14:44:29;12.00;99.90
70550;DHT22;58101;48.658;2.328;2023-01-01T14:46:55;11.90;99.90
70550;DHT22;58101;48.658;2.328;2023-01-01T14:49:34;12.00;99.90
70550;DHT22;58101;48.658;2.328;2023-01-01T14:52:21;12.00;99.90
70550;DHT22;58101;48.658;2.328;2023-01-01T14:54:48;12.00;99.90
70550;DHT22;58101;48.658;2.328;2023-01-01T14:57:17;11.90;99.90
70550;DHT22;58101;48.658;2.328;2023-01-01T14:59:46;11.90;99.90
70550;DHT22;58101;48.658;2.328;2023-01-01T15:02:15;11.90;99.90
70550;DHT22;58101;48.658;2.328;2023-01-01T15:04:41;11.90;99.90
70550;DHT22;58101;48.658;2.328;2023-01-01T15:07:25;11.90;99.90
70550;DHT22;58101;48.658;2.328;2023-01-01T15:09:53;12.00;99.90
70550;DHT22;58101;48.658;2.328;2023-01-01T15:12:19;11.90;99.90
70550;DHT22;58101;48.658;2.328;2023-01-01T15:14:47;11.90;99.90
70550;DHT22;58101;48.658;2.328;2023-01-01T15:17:15;12.00;99.90
70550;DHT22;58101;48.658;2.328;2023-01-01T15:19:44;11.90;99.90
70550;DHT22;58101;48.658;2.328;2023-01-01T15:24:45;11.90;99.90
70550;DHT22;58101;48.658;2.328;2023-01-01T15:27:34;11.90;99.90
70550;DHT22;58101;48.658;2.328;2023-01-01T15:30:02;11.90;99.90
70550;DHT22;58101;48.658;2.328;2023-01-01T15:32:33;12.00;99.90
70550;DHT22;58101;48.658;2.328;2023-01-01T15:35:02;12.00;99.90
70550;DHT22;58101;48.658;2.328;2023-01-01T15:37:46;11.90;99.90
70550;DHT22;58101;48.658;2.328;2023-01-01T15:42:40;11.90;99.90
70550;DHT22;58101;48.658;2.328;2023-01-01T15:45:13;12.00;99.90
70550;DHT22;58101;48.658;2.328;2023-01-01T15:47:39;11.90;99.90
70550;DHT22;58101;48.658;2.328;2023-01-01T15:50:20;11.90;99.90
70550;DHT22;58101;48.658;2.328;2023-01-01T15:52:49;11.90;99.90
70550;DHT22;58101;48.658;2.328;2023-01-01T15:55:16;11.90;99.90
70550;DHT22;58101;48.658;2.328;2023-01-01T15:57:49;11.90;99.90
70550;DHT22;58101;48.658;2.328;2023-01-01T16:00:19;11.90;99.90
70550;DHT22;58101;48.658;2.328;2023-01-01T16:02:46;12.00;99.90
70550;DHT22;58101;48.658;2.328;2023-01-01T16:05:18;12.00;99.90
70550;DHT22;58101;48.658;2.328;2023-01-01T16:07:45;11.90;99.90
70550;DHT22;58101;48.658;2.328;2023-01-01T16:10:15;12.00;99.90
70550;DHT22;58101;48.658;2.328;2023-01-01T16:12:41;12.00;99.90
70550;DHT22;58101;48.658;2.328;2023-01-01T16:15:13;11.90;99.90
70550;DHT22;58101;48.658;2.328;2023-01-01T16:17:39;11.90;99.90
70550;DHT22;58101;48.658;2.328;2023-01-01T16:20:05;11.90;99.90
70550;DHT22;58101;48.658;2.328;2023-01-01T16:22:31;11.90;99.90
70550;DHT22;58101;48.658;2.328;2023-01-01T16:24:56;12.00;99.90
70550;DHT22;58101;48.658;2.328;2023-01-01T16:27:22;12.00;99.90
70550;DHT22;58101;48.658;2.328;2023-01-01T16:29:48;12.00;99.90
70550;DHT22;58101;48.658;2.328;2023-01-01T16:32:17;12.00;99.90
70550;DHT22;58101;48.658;2.328;2023-01-01T16:34:43;12.00;99.90
70550;DHT22;58101;48.658;2.328;2023-01-01T16:37:08;11.90;99.90
70550;DHT22;58101;48.658;2.328;2023-01-01T16:39:34;11.90;99.90
70550;DHT22;58101;48.658;2.328;2023-01-01T16:41:59;11.90;99.90
70550;DHT22;58101;48.658;2.328;2023-01-01T16:44:25;11.90;99.90
70550;DHT22;58101;48.658;2.328;2023-01-01T16:46:51;11.90;99.90
70550;DHT22;58101;48.658;2.328;2023-01-01T16:49:16;12.00;99.90
70550;DHT22;58101;48.658;2.328;2023-01-01T16:51:42;11.90;99.90
70550;DHT22;58101;48.658;2.328;2023-01-01T16:54:08;11.90;99.90
70550;DHT22;58101;48.658;2.328;2023-01-01T16:56:33;12.10;99.90
70550;DHT22;58101;48.658;2.328;2023-01-01T16:58:59;12.00;99.90
70550;DHT22;58101;48.658;2.328;2023-01-01T17:01:25;12.00;99.90
70550;DHT22;58101;48.658;2.328;2023-01-01T17:03:50;12.00;99.90
70550;DHT22;58101;48.658;2.328;2023-01-01T17:06:17;12.00;99.90
70550;DHT22;58101;48.658;2.328;2023-01-01T17:08:43;12.00;99.90
70550;DHT22;58101;48.658;2.328;2023-01-01T17:11:14;12.00;99.90
70550;DHT22;58101;48.658;2.328;2023-01-01T17:13:44;12.10;99.90
70550;DHT22;58101;48.658;2.328;2023-01-01T17:16:11;12.10;99.90
70550;DHT22;58101;48.658;2.328;2023-01-01T17:18:37;12.10;99.90
70550;DHT22;58101;48.658;2.328;2023-01-01T17:21:08;12.20;99.90
70550;DHT22;58101;48.658;2.328;2023-01-01T17:23:38;12.10;99.90
70550;DHT22;58101;48.658;2.328;2023-01-01T17:26:14;12.10;99.90
70550;DHT22;58101;48.658;2.328;2023-01-01T17:28:41;12.10;99.90
70550;DHT22;58101;48.658;2.328;2023-01-01T17:31:12;12.20;99.90
70550;DHT22;58101;48.658;2.328;2023-01-01T17:33:38;12.20;99.90
70550;DHT22;58101;48.658;2.328;2023-01-01T17:36:05;12.20;99.90
70550;DHT22;58101;48.658;2.328;2023-01-01T17:38:31;12.20;99.90
70550;DHT22;58101;48.658;2.328;2023-01-01T17:41:02;12.20;99.90
70550;DHT22;58101;48.658;2.328;2023-01-01T17:43:34;12.30;99.90
70550;DHT22;58101;48.658;2.328;2023-01-01T17:46:09;12.10;99.90
70550;DHT22;58101;48.658;2.328;2023-01-01T17:48:36;12.10;99.90